Latest Weather Observations for Orange Airport

IDN60801

Issued at 2:33 am EDT Friday 29 January 2021 (issued every 10 minutes, with the page automatically refreshed every 10 minutes)

About weather observations | Map of weather stations | Latest weather observations for NSW | Other Formats
Station Details ID: 063303 Name: ORANGE AIRPORT AWS Lat: -33.38 Lon: 149.13 Height: 944.65 m
Data from the previous 72 hours. | See also: Recent months at Orange Airport
Date/Time
EDT
Temp
°C
App
Temp
°C
Dew
Point
°C
Rel
Hum
%
Delta-T
°C
Wind Press
QNH
hPa
Press
MSL
hPa
Rain since
9am
mm
Dir  Spd
km/h
Gust
km/h
Spd
kts
Gust
kts
29/02:30am 13.4 10.5 12.8 96 0.3 ESE 20 30 11 16 1019.4 1014.3 17.0
29/02:00am 13.4 9.7 12.8 96 0.3 ESE 24 33 13 18 1019.6 1014.6 17.0
29/01:44am 13.4 10.5 12.8 96 0.3 ESE 20 30 11 16 1019.7 1014.7 17.0
29/01:30am 13.4 9.6 12.5 94 0.5 ESE 24 33 13 18 1019.8 1014.8 16.8
29/01:23am 13.5 10.1 12.4 93 0.6 ESE 22 30 12 16 1019.7 1014.7 16.4
29/01:00am 13.8 9.9 12.2 90 0.9 E 24 37 13 20 1019.9 1014.9 15.8
29/12:30am 13.7 9.8 12.1 90 0.9 E 24 33 13 18 1020.0 1015.0 15.8
29/12:00am 13.7 10.1 11.9 89 1.0 E 22 35 12 19 1020.4 1015.3 15.8
 
Date/Time
EDT
Temp
°C
App
Temp
°C
Dew
Point
°C
Rel
Hum
%
Delta-T
°C
Wind Press
QNH
hPa
Press
MSL
hPa
Rain since
9am
mm
Dir  Spd
km/h
Gust
km/h
Spd
kts
Gust
kts
28/11:30pm 13.6 9.6 11.8 89 1.0 E 24 35 13 19 1020.4 1015.3 15.8
28/11:00pm 13.5 9.9 11.7 89 1.0 E 22 32 12 17 1020.6 1015.6 15.8
28/10:30pm 13.4 9.7 11.6 89 1.0 E 22 35 12 19 1020.7 1015.7 15.8
28/10:00pm 13.4 8.6 11.6 89 1.0 E 28 39 15 21 1020.7 1015.7 15.8
28/09:30pm 13.3 8.5 11.5 89 1.0 E 28 39 15 21 1020.6 1015.6 15.8
28/09:00pm 13.1 8.3 11.5 90 0.9 E 28 43 15 23 1020.6 1015.6 15.8
28/08:46pm 13.1 8.7 11.7 91 0.8 E 26 35 14 19 1020.5 1015.5 15.8
28/08:30pm 13.1 9.1 11.7 91 0.8 ESE 24 35 13 19 1020.4 1015.3 15.8
28/08:21pm 13.2 9.6 11.9 92 0.7 ESE 22 30 12 16 1020.5 1015.5 15.8
28/08:00pm 13.5 9.3 12.4 93 0.6 E 26 39 14 21 1020.0 1015.0 15.8
28/07:30pm 13.7 9.2 12.6 93 0.6 E 28 37 15 20 1019.6 1014.6 15.8
28/07:00pm 14.1 10.1 13.0 93 0.6 E 26 39 14 21 1019.5 1014.5 15.8
28/06:30pm 14.2 11.0 13.2 94 0.6 E 22 35 12 19 1019.0 1014.0 15.8
28/06:00pm 13.9 10.0 13.3 96 0.3 E 26 35 14 19 1019.0 1014.0 15.8
28/05:35pm 14.1 9.9 13.5 96 0.3 E 28 39 15 21 1019.3 1014.2 15.8
28/05:30pm 14.2 9.7 13.7 97 0.3 E 30 39 16 21 1019.4 1014.3 15.8
28/05:00pm 14.3 10.2 13.7 96 0.4 E 28 39 15 21 1019.7 1014.7 14.6
28/04:30pm 14.6 10.9 13.8 95 0.5 E 26 37 14 20 1019.7 1014.7 12.8
28/04:10pm 15.0 11.3 13.9 93 0.6 E 26 39 14 21 1019.8 1014.8 9.6
28/04:00pm 15.1 11.4 13.8 92 0.8 E 26 39 14 21 1019.9 1014.9 8.8
28/03:43pm 15.6 12.3 14.1 91 0.9 E 24 33 13 18 1019.8 1014.8 8.2
28/03:30pm 15.7 12.8 14.1 90 0.9 E 22 32 12 17 1019.7 1014.7 8.0
28/03:27pm 15.8 12.9 14.0 89 1.1 E 22 32 12 17 1019.7 1014.7 8.0
28/03:00pm 16.2 12.5 14.0 87 1.3 E 26 37 14 20 1019.9 1014.9 7.4
28/02:30pm 16.6 13.0 14.2 86 1.4 E 26 35 14 19 1020.2 1015.2 7.2
28/02:00pm 16.8 12.7 14.8 88 1.2 E 30 41 16 22 1020.4 1015.3 7.2
28/01:45pm 16.4 12.2 14.6 89 1.1 E 30 39 16 21 1020.5 1015.5 7.2
28/01:30pm 16.7 13.7 14.7 88 1.2 E 24 33 13 18 1020.6 1015.6 7.0
28/01:25pm 17.0 14.5 15.2 89 1.1 E 22 33 12 18 1020.7 1015.7 6.8
28/01:15pm 17.4 14.9 16.1 92 0.8 E 24 35 13 19 1020.6 1015.6 6.8
28/01:00pm 16.9 14.8 15.2 90 1.0 E 20 28 11 15 1020.9 1015.9 6.6
28/12:41pm 16.7 14.7 14.9 89 1.1 E 19 24 10 13 1020.8 1015.8 5.0
28/12:33pm 16.7 14.6 14.7 88 1.2 E 19 28 10 15 1020.8 1015.8 4.4
28/12:30pm 16.7 14.5 14.5 87 1.3 E 19 28 10 15 1020.8 1015.8 4.2
28/12:00pm 16.6 14.7 14.2 86 1.4 E 17 26 9 14 1020.9 1015.9 2.4
28/11:43am 17.1 14.9 13.4 79 2.2 E 17 26 9 14 1020.9 1015.9 0.6
28/11:30am 17.6 15.0 13.1 75 2.6 E 19 30 10 16 1020.9 1015.9 0.0
28/11:00am 18.3 13.4 12.5 69 3.4 E 30 43 16 23 1020.5 1015.5 0.0
28/10:42am 19.3 14.2 13.0 67 3.7 E 32 50 17 27 1020.1 1015.1 0.0
28/10:30am 19.8 13.8 13.3 66 3.9 E 37 54 20 29 1020.0 1015.0 0.0
28/10:23am 19.6 14.3 13.1 66 3.9 E 33 54 18 29 1020.0 1015.0 0.0
28/10:00am 18.6 13.4 12.8 69 3.4 ENE 32 48 17 26 1019.8 1014.8 0.0
28/09:58am 18.8 14.0 13.0 69 3.4 ENE 30 48 16 26 1019.8 1014.8 0.0
28/09:30am 18.4 13.7 13.1 71 3.1 ENE 30 41 16 22 1019.9 1014.9 0.0
28/09:00am 17.3 13.1 13.4 78 2.3 ENE 28 41 15 22 1019.8 1014.8 1.0
28/08:30am 16.0 11.1 12.7 81 1.9 ENE 30 43 16 23 1019.8 1014.8 1.0
28/08:00am 15.8 11.3 12.7 82 1.8 E 28 39 15 21 1019.7 1014.7 1.0
28/07:30am 14.6 10.5 12.6 88 1.1 E 26 33 14 18 1019.4 1014.3 1.0
28/07:00am 14.4 12.0 12.8 90 0.9 E 17 28 9 15 1019.1 1014.1 1.0
28/06:30am 14.1 10.0 12.8 92 0.7 E 26 37 14 20 1018.3 1013.2 1.0
28/06:00am 14.2 10.5 12.8 91 0.8 E 24 35 13 19 1018.3 1013.2 1.0
28/05:30am 14.2 10.9 12.9 92 0.7 E 22 32 12 17 1018.2 1013.1 1.0
28/05:00am 14.1 10.4 12.8 92 0.7 E 24 33 13 18 1017.7 1012.7 1.0
28/04:30am 14.2 10.5 12.8 91 0.8 E 24 37 13 20 1017.4 1012.3 1.0
28/04:00am 14.3 10.3 12.9 91 0.8 E 26 37 14 20 1017.6 1012.6 1.0
28/03:30am 14.1 11.1 12.7 91 0.8 E 20 30 11 16 1017.7 1012.7 1.0
28/03:00am 14.3 10.7 12.9 91 0.8 E 24 37 13 20 1017.8 1012.8 1.0
28/02:30am 14.4 9.6 13.0 91 0.8 E 30 39 16 21 1018.1 1013.0 1.0
28/02:00am 14.4 10.4 13.0 91 0.8 E 26 35 14 19 1018.4 1013.3 1.0
28/01:30am 14.4 10.0 13.0 91 0.8 E 28 39 15 21 1018.4 1013.3 1.0
28/01:00am 14.4 10.8 13.1 92 0.8 E 24 35 13 19 1018.4 1013.3 1.0
28/12:30am 14.5 10.5 13.0 91 0.9 E 26 39 14 21 1018.4 1013.3 1.0
28/12:00am 14.5 11.2 12.9 90 0.9 E 22 30 12 16 1018.4 1013.3 1.0
 
Date/Time
EDT
Temp
°C
App
Temp
°C
Dew
Point
°C
Rel
Hum
%
Delta-T
°C
Wind Press
QNH
hPa
Press
MSL
hPa
Rain since
9am
mm
Dir  Spd
km/h
Gust
km/h
Spd
kts
Gust
kts
27/11:30pm 14.6 10.6 13.0 90 0.9 E 26 33 14 18 1018.4 1013.3 1.0
27/11:00pm 14.8 11.2 13.0 89 1.0 E 24 37 13 20 1018.4 1013.3 1.0
27/10:30pm 15.1 11.5 13.1 88 1.2 E 24 35 13 19 1018.3 1013.2 1.0
27/10:00pm 15.1 10.4 13.1 88 1.2 E 30 46 16 25 1018.1 1013.0 1.0
27/09:51pm 15.0 10.6 13.0 88 1.2 E 28 46 15 25 1018.1 1013.0 1.0
27/09:30pm 15.1 10.8 13.1 88 1.2 E 28 39 15 21 1017.9 1012.9 1.0
27/09:00pm 15.3 11.0 13.2 87 1.2 E 28 44 15 24 1017.7 1012.7 1.0
27/08:30pm 15.8 11.5 13.1 84 1.6 E 28 37 15 20 1017.5 1012.4 1.0
27/08:00pm 16.9 12.3 13.4 80 2.1 E 30 41 16 22 1016.8 1011.8 1.0
27/07:30pm 18.6 14.1 13.9 74 2.8 E 30 39 16 21 1016.4 1011.3 1.0
27/07:00pm 20.2 16.4 14.6 70 3.4 E 28 39 15 21 1015.9 1010.8 1.0
27/06:30pm 21.3 17.2 14.9 67 3.9 ESE 30 39 16 21 1015.3 1010.2 1.0
27/06:00pm 22.5 18.6 15.4 64 4.4 E 30 39 16 21 1014.8 1009.7 1.0
27/05:30pm 23.0 19.6 15.8 64 4.5 E 28 43 15 23 1014.5 1009.4 1.0
27/05:00pm 24.3 20.9 16.8 63 4.8 E 30 41 16 22 1014.4 1009.3 1.0
27/04:30pm 22.9 19.7 16.2 66 4.2 E 28 41 15 22 1014.4 1009.3 1.0
27/04:00pm 25.1 22.7 17.3 62 5.0 ENE 26 39 14 21 1014.3 1009.2 1.0
27/03:30pm 25.4 23.8 18.3 65 4.7 ENE 24 32 13 17 1014.4 1009.3 1.0
27/03:00pm 24.3 23.6 19.4 74 3.3 ESE 22 30 12 16 1014.4 1009.3 1.0
27/02:30pm 22.1 21.8 19.6 86 1.7 ESE 20 28 11 15 1014.7 1009.6 1.0
27/02:00pm 22.0 21.6 19.0 83 2.0 SE 19 26 10 14 1014.8 1009.7 1.0
27/01:49pm 23.3 25.7 20.8 86 1.7 E 9 17 5 9 1014.7 1009.6 1.0
27/01:30pm 22.5 24.9 18.9 80 2.4 NNE 4 7 2 4 1014.8 1009.7 0.8
27/01:13pm 22.1 22.0 17.9 77 2.7 NE 15 24 8 13 1014.5 1009.4 0.6
27/01:00pm 24.0 23.5 16.8 64 4.6 NE 15 19 8 10 1014.3 1009.2 0.0
27/12:30pm 25.5 24.9 16.6 58 5.7 NNE 15 20 8 11 1014.3 1009.2 0.0
27/12:00pm 25.2 25.0 16.6 59 5.5 N 13 20 7 11 1014.1 1009.0 0.0
27/11:30am 24.9 24.5 16.3 59 5.5 N 13 19 7 10 1014.1 1009.0 0.0
27/11:00am 25.1 24.6 16.8 60 5.3 NNE 15 22 8 12 1013.9 1008.8 0.0
27/10:30am 25.0 24.6 17.2 62 5.0 NE 15 20 8 11 1013.7 1008.5 0.0
27/10:00am 23.9 23.4 16.9 65 4.5 NNE 15 22 8 12 1013.6 1008.4 0.0
27/09:30am 22.7 23.5 17.4 72 3.4 NNE 9 13 5 7 1013.4 1008.3 0.0
27/09:00am 22.2 21.5 16.5 70 3.6 NE 15 20 8 11 1013.2 1008.1 0.8
27/08:30am 22.0 22.0 17.2 74 3.1 NE 13 17 7 9 1012.8 1007.7 0.8
27/08:00am 21.2 21.7 17.4 79 2.4 NE 11 13 6 7 1012.6 1007.4 0.8
27/07:30am 18.2 19.5 16.2 88 1.2 NE 4 7 2 4 1012.4 1007.2 0.8
27/07:00am 17.4 19.2 15.6 89 1.1 CALM 0 2 0 1 1011.9 1006.8 0.8
27/06:30am 17.0 18.7 15.3 90 1.0 CALM 0 2 0 1 1011.5 1006.3 0.8
27/06:00am 17.1 19.0 15.8 92 0.8 CALM 0 0 0 0 1011.0 1005.9 0.8
27/05:30am 16.4 16.8 14.8 90 1.0 ESE 6 7 3 4 1010.6 1005.4 0.8
27/05:00am 16.0 16.2 14.7 92 0.8 SE 7 7 4 4 1010.3 1005.1 0.8
27/04:30am 17.0 18.3 15.2 89 1.1 WSW 2 7 1 4 1010.2 1005.0 0.8
27/04:00am 18.3 20.3 15.9 86 1.5 CALM 0 0 0 0 1009.9 1004.8 0.8
27/03:30am 17.6 18.1 16.5 93 0.7 ESE 9 9 5 5 1009.8 1004.6 0.8
27/03:00am 17.2 18.0 16.4 95 0.5 SE 7 9 4 5 1009.8 1004.6 0.8
27/02:30am 16.8 17.4 15.8 94 0.6 SE 7 9 4 5 1010.1 1004.9 0.8
27/02:00am 17.0 18.0 15.3 90 1.0 S 4 7 2 4 1010.2 1005.0 0.8
27/01:30am 18.4 18.9 16.6 89 1.1 SW 9 11 5 6 1010.4 1005.2 0.8
27/01:00am 18.3 20.6 16.8 91 0.9 CALM 0 0 0 0 1010.3 1005.1 0.8
27/12:30am 18.6 20.0 17.3 92 0.8 SE 6 7 3 4 1010.3 1005.1 0.8
27/12:00am 18.3 18.9 16.8 91 0.9 ESE 9 11 5 6 1010.3 1005.1 0.8
 
Date/Time
EDT
Temp
°C
App
Temp
°C
Dew
Point
°C
Rel
Hum
%
Delta-T
°C
Wind Press
QNH
hPa
Press
MSL
hPa
Rain since
9am
mm
Dir  Spd
km/h
Gust
km/h
Spd
kts
Gust
kts
26/11:30pm 18.3 19.4 17.0 92 0.8 SE 7 11 4 6 1010.3 1005.1 0.8
26/11:00pm 18.8 21.3 17.3 91 1.0 CALM 0 0 0 0 1010.4 1005.2 0.8
26/10:30pm 19.0 20.4 17.3 90 1.1 E 6 9 3 5 1010.3 1005.1 0.8
26/10:00pm 19.1 20.7 17.8 92 0.8 S 6 7 3 4 1010.2 1005.0 0.8
26/09:30pm 19.2 22.0 17.9 92 0.8 CALM 0 0 0 0 1009.6 1004.4 0.8
26/09:00pm 19.2 21.9 17.7 91 1.0 CALM 0 0 0 0 1009.3 1004.1 0.8
26/08:30pm 19.0 20.5 17.5 91 1.0 ENE 6 9 3 5 1009.1 1003.9 0.8
26/08:00pm 19.0 20.5 17.7 92 0.8 SE 6 7 3 4 1008.8 1003.6 0.8
26/07:30pm 18.8 20.1 17.5 92 0.8 SE 7 9 4 5 1008.7 1003.5 0.8
26/07:00pm 18.9 19.9 17.7 93 0.8 SE 9 11 5 6 1008.5 1003.3 0.8
26/06:30pm 18.7 19.5 17.4 92 0.8 S 9 13 5 7 1008.5 1003.3 0.8
26/06:00pm 18.7 17.0 17.2 91 1.0 WSW 22 30 12 16 1008.7 1003.5 0.4
26/05:30pm 20.3 16.6 16.1 77 2.6 WSW 30 37 16 20 1008.7 1003.5 0.0
26/05:19pm 22.3 17.6 14.4 61 4.8 WSW 32 54 17 29 1008.4 1003.2 0.0
26/05:15pm 23.6 19.3 13.2 52 6.3 WSW 28 54 15 29 1008.1 1002.9 0.0
26/05:00pm 26.7 22.6 12.7 42 8.5 W 26 41 14 22 1008.0 1002.8 0.0
26/04:30pm 27.1 23.3 12.3 39 8.9 W 24 39 13 21 1007.9 1002.6 0.0
26/04:00pm 27.7 23.5 13.6 42 8.7 NW 28 46 15 25 1007.7 1002.5 0.0
26/03:55pm 26.9 22.4 12.5 40 8.7 WNW 28 46 15 25 1007.7 1002.5 0.0
26/03:30pm 27.4 23.3 12.6 40 9.0 NW 26 37 14 20 1007.7 1002.5 0.0
26/03:00pm 28.3 22.9 12.2 37 9.8 NW 32 46 17 25 1008.0 1002.8 0.0
26/02:44pm 28.9 23.4 12.3 36 10.1 NW 33 52 18 28 1008.0 1002.8 0.0
26/02:35pm 29.8 24.0 12.7 35 10.5 NW 35 48 19 26 1008.0 1002.8 0.0
26/02:30pm 29.3 23.2 11.8 34 10.6 WNW 35 46 19 25 1007.9 1002.6 0.0
26/02:00pm 29.6 23.8 11.6 33 10.9 NW 33 52 18 28 1008.0 1002.8 0.0
26/01:51pm 29.9 24.5 12.3 33 10.7 NW 32 52 17 28 1007.9 1002.6 0.0
26/01:30pm 29.6 23.3 11.2 32 11.0 NNW 35 48 19 26 1008.2 1003.0 0.0
26/01:07pm 30.4 25.8 12.3 33 11.1 NNW 28 46 15 25 1008.4 1003.2 0.0
26/01:00pm 28.8 23.7 11.8 35 10.3 NW 30 43 16 23 1008.5 1003.3 0.0
26/12:30pm 27.6 22.9 12.0 38 9.4 NNW 28 39 15 21 1008.8 1003.6 0.0
26/12:00pm 26.3 23.0 12.7 43 8.2 NNW 22 33 12 18 1009.1 1003.9 0.0
26/11:30am 25.9 21.0 11.3 40 8.6 NNW 28 35 15 19 1009.3 1004.1 0.0
26/11:00am 26.7 22.2 12.7 42 8.5 NNW 28 35 15 19 1009.4 1004.2 0.0
26/10:30am 23.9 18.2 11.3 45 7.4 NNW 32 44 17 24 1009.7 1004.5 0.0
26/10:00am 24.3 18.3 10.9 43 7.8 NNW 33 50 18 27 1009.3 1004.1 0.0
26/09:57am 24.2 18.4 10.8 43 7.8 NNW 32 50 17 27 1009.3 1004.1 0.0
26/09:30am 23.2 17.9 11.3 47 6.9 NNW 30 39 16 21 1009.5 1004.3 0.0
26/09:00am 22.9 17.0 11.0 47 6.9 NNW 33 43 18 23 1009.6 1004.4 0.0
26/08:33am 23.8 18.1 11.8 47 7.1 NNW 33 52 18 28 1009.4 1004.2 0.0
26/08:30am 23.5 18.1 12.2 49 6.7 NNW 32 43 17 23 1009.5 1004.3 0.0
26/08:15am 22.6 17.1 12.0 51 6.2 NNW 32 50 17 27 1009.4 1004.2 0.0
26/08:00am 21.9 16.5 12.2 54 5.7 NNW 32 44 17 24 1009.5 1004.3 0.0
26/07:30am 20.4 17.4 12.4 60 4.7 NNW 20 30 11 16 1009.4 1004.2 0.0
26/07:00am 17.3 15.6 12.4 73 2.8 N 13 17 7 9 1009.3 1004.1 0.0
26/06:30am 16.2 14.4 10.9 71 3.0 NNW 11 13 6 7 1009.1 1003.9 0.0
26/06:00am 15.9 14.1 10.7 71 2.9 NW 11 13 6 7 1008.7 1003.5 0.0
26/05:30am 16.7 14.6 11.0 69 3.2 NNW 13 15 7 8 1008.6 1003.4 0.0
26/05:00am 17.1 15.1 11.4 69 3.2 NNW 13 15 7 8 1008.4 1003.2 0.0
26/04:30am 16.6 14.7 10.5 67 3.4 NNW 11 13 6 7 1008.5 1003.3 0.0
26/04:00am 17.5 16.0 10.4 63 4.0 NNW 9 13 5 7 1008.6 1003.4 0.0
26/03:30am 18.4 17.3 10.5 60 4.4 NW 7 11 4 6 1009.1 1003.9 0.0
26/03:00am 19.1 18.3 10.9 59 4.7 WNW 6 7 3 4 1009.2 1004.0 0.0

Other formats

Comma delimited format used in spreadsheet applications
http://www.bom.gov.au/fwo/IDN60801/IDN60801.95726.axf

JavaScript Object Notation format (JSON) in row-major order
http://www.bom.gov.au/fwo/IDN60801/IDN60801.95726.json

Data quality

Most of these data are generated automatically and are frequently updated. Quality checks on data are not normally performed. It is possible for incorrect values to appear. Refer to information at About Latest Weather Observations and please check the disclaimer before using these data.